createdAt,value
2018-06-14T00:00:14.499Z,49.08
2018-06-14T00:01:14.535Z,49.18
2018-06-14T00:02:14.479Z,48.9
2018-06-14T00:03:14.475Z,48.9
2018-06-14T00:04:14.530Z,49.37
2018-06-14T00:05:14.457Z,48.61
2018-06-14T00:06:14.448Z,47.85
2018-06-14T00:07:14.444Z,48.23
2018-06-14T00:08:14.431Z,49.37
2018-06-14T00:09:14.429Z,49.18
2018-06-14T00:10:14.416Z,48.8
2018-06-14T00:11:14.408Z,47.85
2018-06-14T00:12:14.398Z,46.99
2018-06-14T00:13:14.391Z,46.8
2018-06-14T00:14:14.382Z,46.99
2018-06-14T00:15:14.374Z,47.85
2018-06-14T00:16:14.369Z,47.66
2018-06-14T00:17:14.359Z,47.66
2018-06-14T00:18:14.094Z,47.28
2018-06-14T00:19:14.342Z,46.32
2018-06-14T00:20:14.334Z,45.65
2018-06-14T00:21:14.329Z,46.13
2018-06-14T00:22:14.318Z,47.18
2018-06-14T00:23:14.314Z,47.94
2018-06-14T00:24:14.307Z,48.13
2018-06-14T00:25:14.294Z,48.23
2018-06-14T00:26:14.287Z,48.04
2018-06-14T00:27:14.277Z,48.13
2018-06-14T00:28:14.266Z,48.32
2018-06-14T00:29:14.260Z,48.04
2018-06-14T00:30:14.253Z,47.75
2018-06-14T00:31:13.985Z,47.85
2018-06-14T00:32:14.239Z,47.75
2018-06-14T00:33:13.971Z,47.85
2018-06-14T00:34:14.222Z,46.8
2018-06-14T00:35:14.213Z,46.42
2018-06-14T00:36:13.946Z,46.8
2018-06-14T00:37:14.195Z,48.99
2018-06-14T00:38:14.189Z,50.42
2018-06-14T00:39:13.922Z,51.37
2018-06-14T00:40:14.309Z,51.28
2018-06-14T00:41:14.165Z,50.8
2018-06-14T00:42:13.897Z,49.76
2018-06-14T00:43:14.146Z,49.37
2018-06-14T00:44:13.882Z,49.28
2018-06-14T00:45:13.873Z,49.76
2018-06-14T00:46:14.132Z,50.23
2018-06-14T00:47:14.114Z,49.28
2018-06-14T00:48:14.111Z,49.18
2018-06-14T00:49:14.101Z,49.47
2018-06-14T00:50:13.832Z,50.32
2018-06-14T00:51:14.083Z,49.95
2018-06-14T00:52:13.817Z,49.37
2018-06-14T00:53:14.067Z,48.23
2018-06-14T00:54:14.059Z,48.13
2018-06-14T00:55:14.050Z,47.66
2018-06-14T00:56:14.043Z,48.99
2018-06-14T00:57:14.042Z,49.28
2018-06-14T00:58:14.029Z,48.99
2018-06-14T00:59:14.025Z,48.32
2018-06-14T01:00:14.018Z,48.13
2018-06-14T01:01:13.747Z,49.18
2018-06-14T01:02:14.000Z,50.32
2018-06-14T01:03:13.985Z,51.85
2018-06-14T01:04:13.720Z,51.76
2018-06-14T01:05:13.970Z,50.61
2018-06-14T01:06:13.706Z,50.52
2018-06-14T01:07:13.699Z,50.9
2018-06-14T01:08:13.955Z,50.9
2018-06-14T01:09:13.939Z,50.8
2018-06-14T01:10:13.935Z,50.71
2018-06-14T01:11:13.920Z,50.52
2018-06-14T01:12:13.914Z,49.56
2018-06-14T01:13:13.908Z,49.66
2018-06-14T01:14:13.899Z,49.76
2018-06-14T01:15:13.896Z,48.71
2018-06-14T01:16:13.882Z,47.85
2018-06-14T01:17:13.874Z,49.08
2018-06-14T01:18:13.870Z,49.56
2018-06-14T01:19:13.861Z,50.52
2018-06-14T01:20:13.594Z,50.71
2018-06-14T01:21:13.844Z,51.76
2018-06-14T01:22:13.577Z,52.9
2018-06-14T01:23:13.831Z,53.66
2018-06-14T01:24:13.818Z,54.14
2018-06-14T01:25:13.826Z,54.24
2018-06-14T01:26:13.544Z,54.14
2018-06-14T01:27:13.801Z,52.52
2018-06-14T01:28:13.796Z,50.8
2018-06-14T01:29:13.780Z,50.99
2018-06-14T01:30:13.518Z,50.61
2018-06-14T01:31:13.775Z,50.52
2018-06-14T01:32:13.499Z,49.56
2018-06-14T01:33:13.488Z,49.66
2018-06-14T01:34:13.738Z,50.71
2018-06-14T01:35:13.729Z,51.28
2018-06-14T01:36:13.726Z,52.23
2018-06-14T01:37:13.458Z,52.8
2018-06-14T01:38:13.707Z,53.66
2018-06-14T01:39:13.702Z,53.56
2018-06-14T01:40:13.691Z,54.14
2018-06-14T01:41:13.680Z,53.66
2018-06-14T01:42:13.675Z,53.19
2018-06-14T01:43:13.669Z,53
2018-06-14T01:44:13.658Z,53.76
2018-06-14T01:45:13.650Z,53.66
2018-06-14T01:46:13.387Z,54.24
2018-06-14T01:47:13.636Z,54.8
2018-06-14T01:48:13.626Z,54.61
2018-06-14T01:49:13.363Z,54.71
2018-06-14T01:50:13.353Z,55
2018-06-14T01:51:13.603Z,54.33
2018-06-14T01:52:13.595Z,53.66
2018-06-14T01:53:13.331Z,53.47
2018-06-14T01:54:13.323Z,55
2018-06-14T01:55:13.573Z,55.28
2018-06-14T01:56:13.305Z,56.33
2018-06-14T01:57:13.300Z,57.57
2018-06-14T01:58:13.546Z,58.33
2018-06-14T01:59:13.539Z,59.19
2018-06-14T02:00:13.531Z,60.52
2018-06-14T02:01:13.268Z,62.43
2018-06-14T02:02:13.517Z,63.1
2018-06-14T02:03:13.508Z,59.57
2018-06-14T02:04:13.499Z,57.76
2018-06-14T02:05:13.233Z,59.19
2018-06-14T02:06:13.486Z,60.14
2018-06-14T02:07:13.475Z,59.67
2018-06-14T02:08:13.469Z,60.52
2018-06-14T02:09:13.461Z,60.52
2018-06-14T02:10:13.449Z,60.05
2018-06-14T02:11:13.443Z,59
2018-06-14T02:12:13.180Z,58.62
2018-06-14T02:13:13.426Z,59.48
2018-06-14T02:14:13.418Z,59.86
2018-06-14T02:15:13.152Z,60.14
2018-06-14T02:16:13.406Z,59.48
2018-06-14T02:17:13.401Z,58.91
2018-06-14T02:18:13.130Z,58.04
2018-06-14T02:19:13.380Z,58.43
2018-06-14T02:20:13.372Z,58.91
2018-06-14T02:21:13.104Z,57.67
2018-06-14T02:22:13.354Z,57.48
2018-06-14T02:23:13.347Z,56.9
2018-06-14T02:24:13.339Z,57.19
2018-06-14T02:25:13.072Z,57.09
2018-06-14T02:26:13.322Z,56.9
2018-06-14T02:27:13.055Z,57.67
2018-06-14T02:28:13.305Z,58.81
2018-06-14T02:29:13.297Z,60.33
2018-06-14T02:30:13.303Z,61.19
2018-06-14T02:31:13.025Z,60.52
2018-06-14T02:32:13.024Z,60.33
2018-06-14T02:33:13.268Z,60.05
2018-06-14T02:34:13.257Z,59.57
2018-06-14T02:35:13.256Z,58.91
2018-06-14T02:36:13.252Z,59
2018-06-14T02:37:13.237Z,59.28
2018-06-14T02:38:12.968Z,59.19
2018-06-14T02:39:13.218Z,58.91
2018-06-14T02:40:13.215Z,58.52
2018-06-14T02:41:13.203Z,58.72
2018-06-14T02:42:13.194Z,59.48
2018-06-14T02:43:12.928Z,59.09
2018-06-14T02:44:13.184Z,59
2018-06-14T02:45:12.915Z,58.43
2018-06-14T02:46:12.904Z,58.43
2018-06-14T02:47:13.154Z,58.81
2018-06-14T02:48:13.146Z,58.91
2018-06-14T02:49:12.881Z,58.72
2018-06-14T02:50:13.128Z,58.81
2018-06-14T02:51:12.864Z,59
2018-06-14T02:52:13.116Z,58.52
2018-06-14T02:53:13.108Z,56.24
2018-06-14T02:54:13.096Z,56.24
2018-06-14T02:55:12.836Z,55.66
2018-06-14T02:56:13.087Z,56.33
2018-06-14T02:57:12.820Z,56.43
2018-06-14T02:58:12.808Z,55.47
2018-06-14T02:59:13.058Z,55.66
2018-06-14T03:00:13.050Z,55.28
2018-06-14T03:01:13.040Z,55.47
2018-06-14T03:02:13.032Z,55.76
2018-06-14T03:03:13.027Z,55.76
2018-06-14T03:04:13.067Z,55.47
2018-06-14T03:05:13.007Z,55.85
2018-06-14T03:06:13.002Z,56.14
2018-06-14T03:07:13.012Z,54.8
2018-06-14T03:08:12.984Z,53.85
2018-06-14T03:09:12.981Z,53.76
2018-06-14T03:10:12.710Z,53.56
2018-06-14T03:11:12.969Z,53
2018-06-14T03:12:12.701Z,53.66
2018-06-14T03:13:12.945Z,53.85
2018-06-14T03:14:12.936Z,52.71
2018-06-14T03:15:12.671Z,51.37
2018-06-14T03:16:12.919Z,50.8
2018-06-14T03:17:12.918Z,49.37
2018-06-14T03:18:12.903Z,48.32
2018-06-14T03:19:12.903Z,47.56
2018-06-14T03:20:12.891Z,48.71
2018-06-14T03:21:12.888Z,50.8
2018-06-14T03:22:12.878Z,50.9
2018-06-14T03:23:12.865Z,51.56
2018-06-14T03:24:12.596Z,53
2018-06-14T03:25:12.846Z,54.61
2018-06-14T03:26:12.836Z,55.66
2018-06-14T03:27:12.829Z,56.62
2018-06-14T03:28:12.821Z,57.38
2018-06-14T03:29:12.813Z,57.48
2018-06-14T03:30:12.806Z,57.48
2018-06-14T03:31:12.807Z,57.28
2018-06-14T03:32:12.788Z,57.67
2018-06-14T03:33:12.525Z,56.52
2018-06-14T03:34:12.776Z,56.71
2018-06-14T03:35:12.768Z,58.91
2018-06-14T03:36:12.759Z,59.95
2018-06-14T03:37:12.750Z,60.43
2018-06-14T03:38:12.740Z,59.38
2018-06-14T03:39:12.730Z,58.72
2018-06-14T03:40:12.724Z,58.33
2018-06-14T03:41:12.716Z,58.72
2018-06-14T03:42:12.707Z,58.04
2018-06-14T03:43:12.698Z,58.04
2018-06-14T03:44:12.693Z,57.28
2018-06-14T03:45:12.427Z,56.43
2018-06-14T03:46:12.674Z,54.71
2018-06-14T03:47:12.675Z,53
2018-06-14T03:48:12.662Z,51.09
2018-06-14T03:49:12.395Z,50.32
2018-06-14T03:50:12.645Z,50.42
2018-06-14T03:51:12.636Z,50.32
2018-06-14T03:52:12.631Z,49.76
2018-06-14T03:53:12.362Z,50.23
2018-06-14T03:54:12.611Z,49.28
2018-06-14T03:55:12.607Z,50.61
2018-06-14T03:56:12.597Z,53.38
2018-06-14T03:57:12.332Z,53.76
2018-06-14T03:58:12.321Z,53.19
2018-06-14T03:59:12.571Z,51.28
2018-06-14T04:00:12.306Z,50.23
2018-06-14T04:01:12.606Z,49.37
2018-06-14T04:02:12.563Z,49.37
2018-06-14T04:03:12.282Z,49.37
2018-06-14T04:04:12.532Z,49.08
2018-06-14T04:05:12.525Z,48.9
2018-06-14T04:06:12.265Z,48.23
2018-06-14T04:07:12.509Z,48.23
2018-06-14T04:08:12.503Z,48.99
2018-06-14T04:09:12.488Z,49.28
2018-06-14T04:10:12.708Z,50.8
2018-06-14T04:11:12.218Z,51.95
2018-06-14T04:12:12.473Z,53.38
2018-06-14T04:13:12.459Z,54.61
2018-06-14T04:14:12.450Z,54.83
2018-06-14T04:15:12.186Z,54.8
2018-06-14T04:16:12.435Z,54.83
2018-06-14T04:17:12.426Z,56.46
2018-06-14T04:18:12.421Z,57.7
2018-06-14T04:19:12.413Z,58.07
2018-06-14T04:20:12.409Z,58.36
2018-06-14T04:21:12.399Z,58.26
2018-06-14T04:22:12.388Z,56.84
2018-06-14T04:23:12.123Z,57.03
2018-06-14T04:24:12.370Z,58.26
2018-06-14T04:25:12.364Z,59.41
2018-06-14T04:26:12.098Z,59.99
2018-06-14T04:27:12.350Z,61.6
2018-06-14T04:28:12.345Z,60.84
2018-06-14T04:29:12.079Z,61.41
2018-06-14T04:30:12.066Z,62.94
2018-06-14T04:31:12.316Z,65.89
2018-06-14T04:32:12.306Z,68.85
2018-06-14T04:33:12.303Z,70.47
2018-06-14T04:34:12.292Z,73.14
2018-06-14T04:35:12.288Z,73.52
2018-06-14T04:36:12.284Z,73.72
2018-06-14T04:37:12.269Z,72.09
2018-06-14T04:38:12.264Z,71.23
2018-06-14T04:39:12.255Z,72.19
2018-06-14T04:40:12.250Z,71.91
2018-06-14T04:41:12.238Z,70.67
2018-06-14T04:42:11.976Z,69.9
2018-06-14T04:43:12.222Z,71.33
2018-06-14T04:44:12.216Z,72.19
2018-06-14T04:45:11.954Z,72.76
2018-06-14T04:46:11.943Z,72.76
2018-06-14T04:47:12.194Z,72.38
2018-06-14T04:48:12.186Z,72
2018-06-14T04:49:12.176Z,71.91
2018-06-14T04:50:12.174Z,72
2018-06-14T04:51:12.159Z,72.48
2018-06-14T04:52:12.157Z,73.14
2018-06-14T04:53:12.147Z,75.05
2018-06-14T04:54:12.139Z,77.91
2018-06-14T04:55:12.128Z,78.86
2018-06-14T04:56:11.863Z,79.63
2018-06-14T04:57:11.857Z,79.63
2018-06-14T04:58:12.109Z,79.72
2018-06-14T04:59:12.097Z,79.44
2018-06-14T05:00:12.094Z,80.58
2018-06-14T05:01:12.083Z,81.63
2018-06-14T05:02:12.081Z,82.63
2018-06-14T05:03:11.810Z,81.96
2018-06-14T05:04:12.062Z,81.58
2018-06-14T05:05:12.053Z,82.24
2018-06-14T05:06:12.045Z,82.91
2018-06-14T05:07:12.041Z,83.48
2018-06-14T05:08:12.032Z,83.77
2018-06-14T05:09:12.033Z,84.06
2018-06-14T05:10:11.761Z,84.63
2018-06-14T05:11:11.752Z,85.39
2018-06-14T05:12:12.003Z,85.39
2018-06-14T05:13:11.992Z,86.54
2018-06-14T05:14:11.733Z,87.4
2018-06-14T05:15:11.978Z,86.44
2018-06-14T05:16:11.969Z,85.87
2018-06-14T05:17:11.703Z,86.73
2018-06-14T05:18:12.079Z,86.82
2018-06-14T05:19:11.948Z,86.16
2018-06-14T05:20:11.942Z,86.16
2018-06-14T05:21:11.936Z,86.16
2018-06-14T05:22:11.927Z,85.77
2018-06-14T05:23:11.918Z,87.21
2018-06-14T05:24:11.653Z,87.87
2018-06-14T05:25:11.903Z,86.73
2018-06-14T05:26:11.898Z,86.92
2018-06-14T05:27:11.890Z,87.59
2018-06-14T05:28:11.879Z,88.92
2018-06-14T05:29:11.876Z,89.92
2018-06-14T05:30:11.865Z,88.16
2018-06-14T05:31:11.860Z,88.11
2018-06-14T05:32:11.850Z,89.92
2018-06-14T05:33:11.588Z,90.88
2018-06-14T05:34:11.836Z,91.45
2018-06-14T05:35:11.572Z,90.02
2018-06-14T05:36:11.821Z,89.64
2018-06-14T05:37:11.818Z,89.83
2018-06-14T05:38:11.904Z,91.26
2018-06-14T05:39:11.803Z,91.36
2018-06-14T05:40:11.790Z,91.16
2018-06-14T05:41:11.793Z,90.88
2018-06-14T05:42:11.543Z,90.69
2018-06-14T05:43:11.515Z,91.45
2018-06-14T05:44:11.766Z,92.12
2018-06-14T05:45:11.502Z,92.69
2018-06-14T05:46:11.753Z,92.02
2018-06-14T05:47:11.748Z,92.88
2018-06-14T05:48:11.482Z,93.55
2018-06-14T05:49:11.731Z,93.65
2018-06-14T05:50:11.465Z,92.79
2018-06-14T05:51:11.717Z,93.65
2018-06-14T05:52:11.709Z,93.26
2018-06-14T05:53:11.703Z,94.6
2018-06-14T05:54:11.693Z,94.79
2018-06-14T05:55:11.691Z,94.31
2018-06-14T05:56:11.481Z,93.65
2018-06-14T05:57:11.681Z,94.31
2018-06-14T05:58:11.667Z,94.31
2018-06-14T05:59:11.661Z,94.31
2018-06-14T06:00:11.651Z,94.7
2018-06-14T06:01:11.646Z,94.6
2018-06-14T06:02:11.644Z,94.98
2018-06-14T06:03:11.632Z,96.13
2018-06-14T06:04:11.622Z,95.46
2018-06-14T06:05:11.360Z,95.56
2018-06-14T06:06:11.612Z,95.89
2018-06-14T06:07:11.605Z,95.36
2018-06-14T06:08:11.596Z,96.08
2018-06-14T06:09:11.590Z,97.47
2018-06-14T06:10:11.584Z,97.23
2018-06-14T06:11:11.579Z,97.03
2018-06-14T06:12:11.629Z,97.99
2018-06-14T06:13:11.307Z,97.37
2018-06-14T06:14:11.300Z,97.32
2018-06-14T06:15:11.550Z,99.18
2018-06-14T06:16:11.546Z,98.61
2018-06-14T06:17:11.537Z,98.71
2018-06-14T06:18:11.537Z,99.66
2018-06-14T06:19:11.523Z,99.66
2018-06-14T06:20:11.516Z,99.62
2018-06-14T06:21:11.511Z,99.43
2018-06-14T06:22:11.502Z,99.99
2018-06-14T06:23:11.494Z,99.99
2018-06-14T06:24:11.488Z,99.99
2018-06-14T06:25:11.483Z,99.43
2018-06-14T06:26:11.618Z,97.23
2018-06-14T06:27:11.470Z,96.66
2018-06-14T06:28:11.203Z,97.32
2018-06-14T06:29:11.455Z,99.57
2018-06-14T06:30:11.450Z,99.76
2018-06-14T06:31:11.444Z,98.94
2018-06-14T06:32:11.435Z,99.38
2018-06-14T06:33:11.234Z,99.99
2018-06-14T06:34:11.425Z,99.99
2018-06-14T06:35:11.415Z,99.99
2018-06-14T06:36:11.163Z,99.99
2018-06-14T06:37:11.403Z,99.99
2018-06-14T06:38:11.400Z,99.99
2018-06-14T06:39:11.392Z,99.99
2018-06-14T06:40:11.383Z,99.99
2018-06-14T06:41:11.378Z,99.99
2018-06-14T06:42:11.374Z,99.99
2018-06-14T06:43:11.366Z,99.99
2018-06-14T06:44:11.357Z,99.99
2018-06-14T06:45:11.429Z,99.99
2018-06-14T06:46:11.352Z,99.76
2018-06-14T06:47:11.343Z,96.7
2018-06-14T06:48:11.077Z,95.84
2018-06-14T06:49:11.333Z,96.42
2018-06-14T06:50:11.325Z,94.89
2018-06-14T06:51:11.315Z,94.98
2018-06-14T06:52:11.311Z,96.22
2018-06-14T06:53:11.338Z,99.99
2018-06-14T06:54:11.298Z,99.99
2018-06-14T06:55:11.292Z,99.99
2018-06-14T06:56:11.286Z,99.99
2018-06-14T06:57:11.279Z,99.99
2018-06-14T06:58:11.016Z,99.99
2018-06-14T06:59:11.265Z,99.99
2018-06-14T07:00:11.003Z,99.99
2018-06-14T07:01:10.997Z,99.99
2018-06-14T07:02:11.245Z,99.99
2018-06-14T07:03:11.248Z,99.99
2018-06-14T07:04:11.241Z,99.99
2018-06-14T07:05:11.230Z,99.99
2018-06-14T07:06:11.480Z,99.99
2018-06-14T07:07:11.229Z,99.99
2018-06-14T07:08:11.213Z,99.99
2018-06-14T07:09:11.208Z,99.99
2018-06-14T07:10:11.208Z,99.99
2018-06-14T07:11:10.939Z,99.99
2018-06-14T07:12:11.199Z,99.99
2018-06-14T07:13:11.183Z,99.99
2018-06-14T07:14:11.177Z,99.99
2018-06-14T07:15:10.917Z,99.99
2018-06-14T07:16:10.912Z,99.99
2018-06-14T07:17:11.165Z,99.99
2018-06-14T07:18:11.157Z,99.99
2018-06-14T07:19:11.148Z,99.99
2018-06-14T07:20:11.144Z,99.99
2018-06-14T07:21:11.141Z,99.99
2018-06-14T07:22:11.140Z,99.99
2018-06-14T07:23:11.134Z,99.99
2018-06-14T07:24:11.125Z,99.99
2018-06-14T07:25:11.116Z,99.99
2018-06-14T07:26:10.856Z,99.99
2018-06-14T07:27:11.108Z,99.99
2018-06-14T07:28:10.849Z,99.99
2018-06-14T07:29:11.095Z,99.99
2018-06-14T07:30:11.092Z,99.99
2018-06-14T07:31:11.086Z,99.99
2018-06-14T07:32:11.083Z,99.99
2018-06-14T07:33:11.082Z,99.99
2018-06-14T07:34:11.070Z,99.99
2018-06-14T07:35:11.061Z,99.99
2018-06-14T07:36:11.058Z,99.99
2018-06-14T07:37:10.797Z,98.61
2018-06-14T07:38:10.791Z,95.75
2018-06-14T07:39:11.042Z,95.27
2018-06-14T07:40:11.040Z,94.41
2018-06-14T07:41:10.776Z,96.99
2018-06-14T07:42:11.036Z,94.41
2018-06-14T07:43:11.066Z,92.59
2018-06-14T07:44:11.018Z,93.35
2018-06-14T07:45:10.755Z,96.13
2018-06-14T07:46:11.003Z,96.22
2018-06-14T07:47:11.001Z,95.46
2018-06-14T07:48:10.995Z,97.37
2018-06-14T07:49:10.992Z,97.75
2018-06-14T07:50:11.045Z,95.56
2018-06-14T07:51:10.982Z,97.52
2018-06-14T07:52:10.976Z,98.66
2018-06-14T07:53:10.714Z,96.47
2018-06-14T07:54:10.782Z,95.12
2018-06-14T07:55:10.964Z,93.69
2018-06-14T07:56:10.956Z,91.39
2018-06-14T07:57:10.948Z,91.87
2018-06-14T07:58:10.947Z,94.36
2018-06-14T07:59:10.684Z,94.36
2018-06-14T08:00:11.059Z,93.79
2018-06-14T08:01:10.674Z,94.55
2018-06-14T08:02:10.669Z,93.59
2018-06-14T08:03:10.932Z,91.49
2018-06-14T08:04:10.914Z,89.38
2018-06-14T08:05:10.920Z,88.13
2018-06-14T08:06:10.906Z,87.7
2018-06-14T08:07:10.901Z,88.13
2018-06-14T08:08:10.898Z,90.05
2018-06-14T08:09:10.635Z,90.39
2018-06-14T08:10:10.887Z,93.98
2018-06-14T08:11:10.882Z,94.17
2018-06-14T08:12:10.881Z,93.02
2018-06-14T08:13:10.872Z,92.92
2018-06-14T08:14:10.869Z,91.63
2018-06-14T08:15:10.865Z,91.63
2018-06-14T08:16:10.859Z,91.44
2018-06-14T08:17:10.859Z,88.85
2018-06-14T08:18:10.593Z,87.7
2018-06-14T08:19:10.846Z,87.13
2018-06-14T08:20:10.583Z,84.64
2018-06-14T08:21:10.840Z,85.6
2018-06-14T08:22:10.832Z,87.8
2018-06-14T08:23:10.829Z,89.52
2018-06-14T08:24:10.823Z,87.51
2018-06-14T08:25:10.821Z,86.46
2018-06-14T08:26:10.817Z,87.03
2018-06-14T08:27:10.808Z,87.41
2018-06-14T08:28:10.804Z,90.09
2018-06-14T08:29:10.799Z,91.72
2018-06-14T08:30:10.797Z,92.68
2018-06-14T08:31:10.793Z,91.82
2018-06-14T08:32:10.789Z,92.87
2018-06-14T08:33:10.783Z,91.63
2018-06-14T08:34:10.778Z,89.43
2018-06-14T08:35:10.774Z,87.13
2018-06-14T08:36:10.771Z,84.55
2018-06-14T08:37:10.770Z,83.78
2018-06-14T08:38:10.984Z,81.38
2018-06-14T08:39:10.760Z,80.71
2018-06-14T08:40:10.498Z,83.78
2018-06-14T08:41:10.751Z,82.09
2018-06-14T08:42:10.488Z,81.33
2018-06-14T08:43:10.742Z,80.18
2018-06-14T08:44:10.741Z,79.8
2018-06-14T08:45:10.735Z,82
2018-06-14T08:46:10.729Z,83.63
2018-06-14T08:47:10.468Z,85.69
2018-06-14T08:48:10.718Z,85.45
2018-06-14T08:49:10.719Z,85.45
2018-06-14T08:50:10.715Z,84.78
2018-06-14T08:51:10.709Z,85.93
2018-06-14T08:52:10.704Z,82
2018-06-14T08:53:10.703Z,81.71
2018-06-14T08:54:10.438Z,82.76
2018-06-14T08:55:10.693Z,81.33
2018-06-14T08:56:10.688Z,83.15
2018-06-14T08:57:10.685Z,86.21
2018-06-14T08:58:10.680Z,87.08
2018-06-14T08:59:10.676Z,86.88
2018-06-14T09:00:10.674Z,87.65
2018-06-14T09:01:10.412Z,88.42
2018-06-14T09:02:10.663Z,88.23
2018-06-14T09:03:10.660Z,87.94
2018-06-14T09:04:10.657Z,83.92
2018-06-14T09:05:10.397Z,82.29
2018-06-14T09:06:10.746Z,84.78
2018-06-14T09:07:10.650Z,83.25
2018-06-14T09:08:10.647Z,82.67
2018-06-14T09:09:10.637Z,83.25
2018-06-14T09:10:10.633Z,79.32
2018-06-14T09:11:10.628Z,77.88
2018-06-14T09:12:10.628Z,80.27
2018-06-14T09:13:10.365Z,75.58
2018-06-14T09:14:10.740Z,71.84
2018-06-14T09:15:10.356Z,73.66
2018-06-14T09:16:10.356Z,75.39
2018-06-14T09:17:10.403Z,73.28
2018-06-14T09:18:10.612Z,74.15
2018-06-14T09:19:10.342Z,79.89
2018-06-14T09:20:10.600Z,86.45
2018-06-14T09:21:10.591Z,81.18
2018-06-14T09:22:10.597Z,79.26
2018-06-14T09:23:10.588Z,79.64
2018-06-14T09:24:10.581Z,76.1
2018-06-14T09:25:10.578Z,77.53
2018-06-14T09:26:10.578Z,73.13
2018-06-14T09:27:10.314Z,75.04
2018-06-14T09:28:10.569Z,76.67
2018-06-14T09:29:10.561Z,78.02
2018-06-14T09:30:10.562Z,74.76
2018-06-14T09:31:10.302Z,72.55
2018-06-14T09:32:10.554Z,69.81
2018-06-14T09:33:10.555Z,66.93
2018-06-14T09:34:10.546Z,66.74
2018-06-14T09:35:10.544Z,66.93
2018-06-14T09:36:10.544Z,66.35
2018-06-14T09:37:10.538Z,66.45
2018-06-14T09:38:10.535Z,67.02
2018-06-14T09:39:10.531Z,79.91
2018-06-14T09:40:10.532Z,80.4
2018-06-14T09:41:10.552Z,75.98
2018-06-14T09:42:10.526Z,73.77
2018-06-14T09:43:10.316Z,65.62
2018-06-14T09:44:10.522Z,63.12
2018-06-14T09:45:10.513Z,65.43
2018-06-14T09:46:10.256Z,66.49
2018-06-14T09:47:10.508Z,68.69
2018-06-14T09:48:10.505Z,67.54
2018-06-14T09:49:10.502Z,66.13
2018-06-14T09:50:10.499Z,61.43
2018-06-14T09:51:10.497Z,58.94
2018-06-14T09:52:10.494Z,58.07
2018-06-14T09:53:10.237Z,57.97
2018-06-14T09:54:10.491Z,57.21
2018-06-14T09:55:10.489Z,56.73
2018-06-14T09:56:10.486Z,60.75
2018-06-14T09:57:10.482Z,62.48
2018-06-14T09:58:10.483Z,61.08
2018-06-14T09:59:10.478Z,59.12
2018-06-14T10:00:10.218Z,59.16
2018-06-14T10:01:10.215Z,60.11
2018-06-14T10:02:10.212Z,59.34
2018-06-14T10:03:10.212Z,60.6
2018-06-14T10:04:10.474Z,59.92
2018-06-14T10:05:10.466Z,59.06
2018-06-14T10:06:10.597Z,58.77
2018-06-14T10:07:10.474Z,58.87
2018-06-14T10:08:10.460Z,60.6
2018-06-14T10:09:10.459Z,66.07
2018-06-14T10:10:10.454Z,61.17
2018-06-14T10:11:10.451Z,64.25
2018-06-14T10:12:10.455Z,63.57
2018-06-14T10:13:10.453Z,61.94
2018-06-14T10:14:10.448Z,61.36
2018-06-14T10:15:10.446Z,58.89
2018-06-14T10:16:10.442Z,59.19
2018-06-14T10:17:10.442Z,58.99
2018-06-14T10:18:10.181Z,57.65
2018-06-14T10:19:10.439Z,57.97
2018-06-14T10:20:10.436Z,61.71
2018-06-14T10:21:10.182Z,59.41
2018-06-14T10:22:10.437Z,58.35
2018-06-14T10:23:10.173Z,57.97
2018-06-14T10:24:10.430Z,55.66
2018-06-14T10:25:10.432Z,55.94
2018-06-14T10:26:10.428Z,54.6
2018-06-14T10:27:10.432Z,55.94
2018-06-14T10:28:10.430Z,56.91
2018-06-14T10:29:10.424Z,57.29
2018-06-14T10:30:10.422Z,56.81
2018-06-14T10:31:10.421Z,55.88
2018-06-14T10:32:10.432Z,51.93
2018-06-14T10:33:10.421Z,55.88
2018-06-14T10:34:10.422Z,57.6
2018-06-14T10:35:10.421Z,60.3
2018-06-14T10:36:10.158Z,55.98
2018-06-14T10:37:10.475Z,55.68
2018-06-14T10:38:10.414Z,54.53
2018-06-14T10:39:10.412Z,55.52
2018-06-14T10:40:10.155Z,52.73
2018-06-14T10:41:10.155Z,46.67
2018-06-14T10:42:10.418Z,48.97
2018-06-14T10:43:10.409Z,51.29
2018-06-14T10:44:10.415Z,51.38
2018-06-14T10:45:10.409Z,52.15
2018-06-14T10:46:10.152Z,51.96
2018-06-14T10:47:10.411Z,50.61
2018-06-14T10:48:10.409Z,50.13
2018-06-14T10:49:10.407Z,50.51
2018-06-14T10:50:10.150Z,53.21
2018-06-14T10:51:10.410Z,49.96
2018-06-14T10:52:10.410Z,49.38
2018-06-14T10:53:10.408Z,49.1
2018-06-14T10:54:10.411Z,48.23
2018-06-14T10:55:10.403Z,49.46
2018-06-14T10:56:10.158Z,49.87
2018-06-14T10:57:10.407Z,50.32
2018-06-14T10:58:10.145Z,51.76
2018-06-14T10:59:10.408Z,53.59
2018-06-14T11:00:10.146Z,54.65
2018-06-14T11:01:10.405Z,51.76
2018-06-14T11:02:10.143Z,52.73
2018-06-14T11:03:10.402Z,56.77
2018-06-14T11:04:10.400Z,56.2
2018-06-14T11:05:10.402Z,55.07
2018-06-14T11:06:10.152Z,54.39
2018-06-14T11:07:10.399Z,52.37
2018-06-14T11:08:10.143Z,52.4
2018-06-14T11:09:10.413Z,52.49
2018-06-14T11:10:10.398Z,50.45
2018-06-14T11:11:10.401Z,49.96
2018-06-14T11:12:10.402Z,47.94
2018-06-14T11:13:10.488Z,51.98
2018-06-14T11:14:10.397Z,48.71
2018-06-14T11:15:10.404Z,49.48
2018-06-14T11:16:10.403Z,49.1
2018-06-14T11:17:10.402Z,49.87
2018-06-14T11:18:10.399Z,51.89
2018-06-14T11:19:10.398Z,49.87
2018-06-14T11:20:10.413Z,49
2018-06-14T11:21:10.404Z,49.96
2018-06-14T11:22:10.139Z,48.61
2018-06-14T11:23:10.399Z,48.03
2018-06-14T11:24:10.399Z,50.32
2018-06-14T11:25:10.404Z,49.27
2018-06-14T11:26:10.400Z,48.59
2018-06-14T11:27:10.140Z,47.92
2018-06-14T11:28:10.398Z,50.2
2018-06-14T11:29:10.396Z,50.32
2018-06-14T11:30:10.401Z,52.63
2018-06-14T11:31:10.431Z,53.69
2018-06-14T11:32:10.398Z,52.54
2018-06-14T11:33:10.397Z,53.88
2018-06-14T11:34:10.395Z,53.5
2018-06-14T11:35:10.397Z,56
2018-06-14T11:36:10.139Z,54.36
2018-06-14T11:37:10.394Z,53.59
2018-06-14T11:38:10.395Z,53.88
2018-06-14T11:39:10.139Z,53.02
2018-06-14T11:40:10.136Z,53.88
2018-06-14T11:41:10.396Z,52.73
2018-06-14T11:42:10.394Z,52.63
2018-06-14T11:43:10.393Z,53.69
2018-06-14T11:44:10.392Z,51.67
2018-06-14T11:45:10.391Z,53.11
2018-06-14T11:46:10.395Z,53.88
2018-06-14T11:47:10.390Z,54.75
2018-06-14T11:48:10.401Z,54.63
2018-06-14T11:49:10.393Z,55.9
2018-06-14T11:50:10.390Z,55.81
2018-06-14T11:51:10.133Z,53.05
2018-06-14T11:52:10.387Z,49.96
2018-06-14T11:53:10.389Z,49.1
2018-06-14T11:54:10.139Z,52.47
2018-06-14T11:55:10.392Z,52.75
2018-06-14T11:56:10.387Z,50.37
2018-06-14T11:57:10.388Z,48.71
2018-06-14T11:58:10.386Z,51.6
2018-06-14T11:59:10.391Z,51.76
2018-06-14T12:00:10.386Z,52.63
2018-06-14T12:01:10.421Z,53.69
2018-06-14T12:02:10.127Z,56.1
2018-06-14T12:03:10.384Z,55.71
2018-06-14T12:04:10.386Z,53.62
2018-06-14T12:05:10.386Z,52.85
2018-06-14T12:06:10.386Z,50.45
2018-06-14T12:07:10.127Z,50.06
2018-06-14T12:08:10.386Z,50.99
2018-06-14T12:09:10.127Z,51.86
2018-06-14T12:10:10.384Z,50.99
2018-06-14T12:11:10.385Z,49.74
2018-06-14T12:12:10.383Z,47.53
2018-06-14T12:13:10.392Z,47.15
2018-06-14T12:14:10.383Z,50.04
2018-06-14T12:15:10.436Z,52.44
2018-06-14T12:16:10.388Z,49.36
2018-06-14T12:17:10.383Z,54.65
2018-06-14T12:18:10.381Z,55.3
2018-06-14T12:19:10.384Z,57.32
2018-06-14T12:20:10.381Z,56.74
2018-06-14T12:21:10.382Z,52.54
2018-06-14T12:22:10.387Z,50.04
2018-06-14T12:23:10.381Z,51.45
2018-06-14T12:24:10.384Z,53.96
2018-06-14T12:25:10.386Z,55.33
2018-06-14T12:26:10.380Z,54.36
2018-06-14T12:27:10.379Z,53.4
2018-06-14T12:28:10.118Z,52.44
2018-06-14T12:29:10.381Z,52.54
2018-06-14T12:30:10.381Z,53.76
2018-06-14T12:31:10.375Z,54.82
2018-06-14T12:32:10.376Z,55.01
2018-06-14T12:33:10.377Z,58.09
2018-06-14T12:34:10.120Z,57.8
2018-06-14T12:35:10.373Z,56.74
2018-06-14T12:36:10.376Z,53.86
2018-06-14T12:37:10.375Z,52.22
2018-06-14T12:38:10.374Z,53.57
2018-06-14T12:39:10.373Z,54.5
2018-06-14T12:40:10.115Z,52.51
2018-06-14T12:41:10.373Z,53.64
2018-06-14T12:42:10.369Z,57.2
2018-06-14T12:43:10.371Z,60.56
2018-06-14T12:44:10.418Z,59.22
2018-06-14T12:45:10.370Z,59.6
2018-06-14T12:46:10.367Z,59.41
2018-06-14T12:47:10.367Z,57.58
2018-06-14T12:48:10.367Z,59.63
2018-06-14T12:49:10.364Z,62.32
2018-06-14T12:50:10.367Z,58.86
2018-06-14T12:51:10.513Z,60.66
2018-06-14T12:52:10.361Z,61.43
2018-06-14T12:53:10.361Z,59.79
2018-06-14T12:54:10.358Z,60.08
2018-06-14T12:55:10.361Z,60.17
2018-06-14T12:56:10.360Z,63.83